createdAt,value
2023-01-29T00:00:39.129Z,70.72
2023-01-29T00:03:43.009Z,70.72
2023-01-29T00:06:46.631Z,71.88
2023-01-29T00:09:53.447Z,71.93
2023-01-29T00:12:57.163Z,72.17
2023-01-29T00:16:03.240Z,72.21
2023-01-29T00:19:24.757Z,72.60
2023-01-29T00:22:37.529Z,71.81
2023-01-29T00:25:54.361Z,71.63
2023-01-29T00:29:00.658Z,72.12
2023-01-29T00:32:03.953Z,71.79
2023-01-29T00:35:19.926Z,72.44
2023-01-29T00:38:35.788Z,73.25
2023-01-29T00:42:03.645Z,72.40
2023-01-29T00:45:20.108Z,71.37
2023-01-29T00:48:36.016Z,72.12
2023-01-29T00:51:42.132Z,72.30
2023-01-29T00:54:48.281Z,73.15
2023-01-29T00:58:11.749Z,73.62
2023-01-29T01:01:49.915Z,73.02
2023-01-29T01:04:58.786Z,73.06
2023-01-29T01:08:31.590Z,72.78
2023-01-29T01:11:38.252Z,73.34
2023-01-29T01:14:58.586Z,73.59
2023-01-29T01:18:16.504Z,73.79
2023-01-29T01:21:39.890Z,74.01
2023-01-29T01:25:00.591Z,73.81
2023-01-29T01:28:22.946Z,73.86
2023-01-29T01:31:42.621Z,74.10
2023-01-29T01:34:46.047Z,73.07
2023-01-29T01:37:53.968Z,73.40
2023-01-29T01:41:09.506Z,73.80
2023-01-29T01:44:51.568Z,74.29
2023-01-29T01:48:07.619Z,73.80
2023-01-29T01:51:13.247Z,74.06
2023-01-29T01:54:40.448Z,74.16
2023-01-29T01:58:07.191Z,73.61
2023-01-29T02:01:35.313Z,73.94
2023-01-29T02:05:11.815Z,74.21
2023-01-29T02:08:34.203Z,74.81
2023-01-29T02:11:38.560Z,73.12
2023-01-29T02:14:43.714Z,73.73
2023-01-29T02:17:48.448Z,73.64
2023-01-29T02:21:31.362Z,74.45
2023-01-29T02:25:14.493Z,73.63
2023-01-29T02:28:32.544Z,74.62
2023-01-29T02:31:53.580Z,74.68
2023-01-29T02:35:51.444Z,75.01
2023-01-29T02:39:31.925Z,74.16
2023-01-29T02:42:40.908Z,74.36
2023-01-29T02:45:59.959Z,74.56
2023-01-29T02:49:41.462Z,74.17
2023-01-29T02:53:29.418Z,74.79
2023-01-29T02:57:04.244Z,74.94
2023-01-29T03:00:33.522Z,75.40
2023-01-29T03:03:41.942Z,74.23
2023-01-29T03:06:54.842Z,73.67
2023-01-29T03:10:44.834Z,74.48
2023-01-29T03:13:51.583Z,73.96
2023-01-29T03:16:55.827Z,73.90
2023-01-29T03:20:01.016Z,73.04
2023-01-29T03:23:51.886Z,73.32
2023-01-29T03:27:21.353Z,72.46
2023-01-29T03:31:03.571Z,72.96
2023-01-29T03:34:34.893Z,72.39
2023-01-29T03:37:48.512Z,72.82
2023-01-29T03:41:02.297Z,72.09
2023-01-29T03:44:37.285Z,71.91
2023-01-29T03:48:08.906Z,71.88
2023-01-29T03:51:22.224Z,71.31
2023-01-29T03:54:34.061Z,71.13
2023-01-29T03:57:46.824Z,70.98
2023-01-29T04:01:04.302Z,71.46
2023-01-29T04:04:29.624Z,70.92
2023-01-29T04:07:36.795Z,71.73
2023-01-29T04:10:43.938Z,71.15
2023-01-29T04:13:48.110Z,70.38
2023-01-29T04:17:21.061Z,70.52
2023-01-29T04:20:47.196Z,70.45
2023-01-29T04:24:03.094Z,69.91
2023-01-29T04:27:31.455Z,70.17
2023-01-29T04:31:10.873Z,70.76
2023-01-29T04:34:30.059Z,71.04
2023-01-29T04:38:15.979Z,70.17
2023-01-29T04:41:45.157Z,70.32
2023-01-29T04:44:58.035Z,71.05
2023-01-29T04:48:18.010Z,70.10
2023-01-29T04:51:43.507Z,69.69
2023-01-29T04:55:06.282Z,69.36
2023-01-29T04:58:40.524Z,70.18
2023-01-29T05:01:44.901Z,70.28
2023-01-29T05:04:50.584Z,69.90
2023-01-29T05:08:04.527Z,69.81
2023-01-29T05:11:18.588Z,69.68
2023-01-29T05:14:41.160Z,69.98
2023-01-29T05:18:07.297Z,70.33
2023-01-29T05:21:23.277Z,69.80
2023-01-29T05:24:43.071Z,70.42
2023-01-29T05:28:12.162Z,70.25
2023-01-29T05:31:15.594Z,70.01
2023-01-29T05:34:23.018Z,69.84
2023-01-29T05:37:31.363Z,69.27
2023-01-29T05:40:35.095Z,69.96
2023-01-29T05:43:39.616Z,70.34
2023-01-29T05:46:46.986Z,69.58
2023-01-29T05:49:53.307Z,69.41
2023-01-29T05:53:01.861Z,69.99
2023-01-29T05:56:09.164Z,69.49
2023-01-29T05:59:21.903Z,70.12
2023-01-29T06:02:45.264Z,69.40
2023-01-29T06:06:01.856Z,69.85
2023-01-29T06:09:18.767Z,70.84
2023-01-29T06:12:55.917Z,70.49
2023-01-29T06:16:17.826Z,71.14
2023-01-29T06:19:40.874Z,71.13
2023-01-29T06:23:02.815Z,71.09
2023-01-29T06:26:21.996Z,70.81
2023-01-29T06:29:37.718Z,71.99
2023-01-29T06:33:09.896Z,71.58
2023-01-29T06:36:32.913Z,71.61
2023-01-29T06:39:41.243Z,72.59
2023-01-29T06:43:03.639Z,72.71
2023-01-29T06:46:37.625Z,72.42
2023-01-29T06:50:05.252Z,71.79
2023-01-29T06:53:18.388Z,72.34
2023-01-29T06:56:41.618Z,72.55
2023-01-29T07:00:02.951Z,71.91
2023-01-29T07:03:25.588Z,73.17
2023-01-29T07:06:53.684Z,73.17
2023-01-29T07:10:05.158Z,71.75
2023-01-29T07:13:28.895Z,72.78
2023-01-29T07:17:02.030Z,73.06
2023-01-29T07:20:22.584Z,72.29
2023-01-29T07:23:43.900Z,71.16
2023-01-29T07:27:04.718Z,72.03
2023-01-29T07:30:22.056Z,71.77
2023-01-29T07:33:43.099Z,71.79
2023-01-29T07:36:54.840Z,71.28
2023-01-29T07:39:58.787Z,71.54
2023-01-29T07:43:11.457Z,70.38
2023-01-29T07:46:28.324Z,70.62
2023-01-29T07:49:42.391Z,70.24
2023-01-29T07:52:45.512Z,70.63
2023-01-29T07:55:54.200Z,70.71
2023-01-29T07:59:04.124Z,69.89
2023-01-29T08:02:12.431Z,69.30
2023-01-29T08:05:24.219Z,69.11
2023-01-29T08:08:32.186Z,67.76
2023-01-29T08:11:39.449Z,69.23
2023-01-29T08:14:44.434Z,68.60
2023-01-29T08:18:03.753Z,69.20
2023-01-29T08:21:16.803Z,68.92
2023-01-29T08:24:41.818Z,67.57
2023-01-29T08:28:07.958Z,68.42
2023-01-29T08:31:22.936Z,68.59
2023-01-29T08:34:52.508Z,69.44
2023-01-29T08:38:06.808Z,68.26
2023-01-29T08:41:33.548Z,68.23
2023-01-29T08:44:45.554Z,68.52
2023-01-29T08:48:07.361Z,68.62
2023-01-29T08:51:25.134Z,68.99
2023-01-29T08:54:43.467Z,67.93
2023-01-29T08:58:19.476Z,68.73
2023-01-29T09:01:38.876Z,68.36
2023-01-29T09:05:04.228Z,67.88
2023-01-29T09:08:29.903Z,68.43
2023-01-29T09:11:41.008Z,67.47
2023-01-29T09:14:46.991Z,67.63
2023-01-29T09:17:50.767Z,67.48
2023-01-29T09:20:58.839Z,66.14
2023-01-29T09:24:05.774Z,65.97
2023-01-29T09:27:14.243Z,66.84
2023-01-29T09:30:23.230Z,66.25
2023-01-29T09:33:40.183Z,66.29
2023-01-29T09:36:59.104Z,65.25
2023-01-29T09:40:35.491Z,65.25
2023-01-29T09:44:04.215Z,66.45
2023-01-29T09:47:15.542Z,65.46
2023-01-29T09:50:40.247Z,63.95
2023-01-29T09:54:08.385Z,65.30
2023-01-29T09:57:25.440Z,64.54
2023-01-29T10:00:49.256Z,64.63
2023-01-29T10:04:28.883Z,64.12
2023-01-29T10:07:48.112Z,64.73
2023-01-29T10:10:58.510Z,64.11
2023-01-29T10:14:38.235Z,64.99
2023-01-29T10:18:07.488Z,64.38
2023-01-29T10:21:32.231Z,63.82
2023-01-29T10:24:53.193Z,63.39
2023-01-29T10:28:00.686Z,62.66
2023-01-29T10:31:23.834Z,63.05
2023-01-29T10:34:42.601Z,63.38
2023-01-29T10:37:46.505Z,63.27
2023-01-29T10:41:11.013Z,62.22
2023-01-29T10:44:53.804Z,62.15
2023-01-29T10:48:15.186Z,62.39
2023-01-29T10:51:43.208Z,63.24
2023-01-29T10:54:56.805Z,62.89
2023-01-29T10:58:17.128Z,62.21
2023-01-29T11:01:27.217Z,61.69
2023-01-29T11:04:46.321Z,61.79
2023-01-29T11:08:09.597Z,61.91
2023-01-29T11:11:28.668Z,61.94
2023-01-29T11:14:38.205Z,60.89
2023-01-29T11:18:16.321Z,60.11
2023-01-29T11:21:30.152Z,60.34
2023-01-29T11:24:41.150Z,59.34
2023-01-29T11:28:13.092Z,59.76
2023-01-29T11:31:42.291Z,59.39
2023-01-29T11:35:07.918Z,59.48
2023-01-29T11:38:23.401Z,58.45
2023-01-29T11:41:47.227Z,58.20
2023-01-29T11:44:50.472Z,58.55
2023-01-29T11:48:05.043Z,58.22
2023-01-29T11:51:10.946Z,57.71
2023-01-29T11:54:33.237Z,57.11
2023-01-29T11:58:25.611Z,57.68
2023-01-29T12:01:42.875Z,56.62
2023-01-29T12:04:56.008Z,57.13
2023-01-29T12:08:02.806Z,57.14
2023-01-29T12:11:16.479Z,56.71
2023-01-29T12:14:39.776Z,56.06
2023-01-29T12:17:48.878Z,55.72
2023-01-29T12:21:18.717Z,55.47
2023-01-29T12:25:13.863Z,55.98
2023-01-29T12:28:50.425Z,54.84
2023-01-29T12:32:21.578Z,56.46
2023-01-29T12:35:35.670Z,54.59
2023-01-29T12:38:45.299Z,56.96
2023-01-29T12:42:04.532Z,55.29
2023-01-29T12:45:21.276Z,55.28
2023-01-29T12:48:37.728Z,55.12
2023-01-29T12:52:02.055Z,54.98
2023-01-29T12:55:56.742Z,54.08
2023-01-29T12:59:29.387Z,55.00
2023-01-29T13:03:18.802Z,54.69
2023-01-29T13:06:37.049Z,55.75
2023-01-29T13:09:46.556Z,55.15
2023-01-29T13:13:14.434Z,55.68
2023-01-29T13:16:29.547Z,56.54
2023-01-29T13:19:48.691Z,55.10
2023-01-29T13:22:54.735Z,54.53
2023-01-29T13:26:02.163Z,54.68
2023-01-29T13:29:05.669Z,54.51
2023-01-29T13:32:10.668Z,55.46
2023-01-29T13:35:36.725Z,54.76
2023-01-29T13:39:03.932Z,56.30
2023-01-29T13:42:24.119Z,55.17
2023-01-29T13:45:44.749Z,54.27
2023-01-29T13:48:58.613Z,54.59
2023-01-29T13:52:40.047Z,53.95
2023-01-29T13:55:47.124Z,55.14
2023-01-29T13:59:04.986Z,55.06
2023-01-29T14:02:45.573Z,55.07
2023-01-29T14:05:54.944Z,54.98
2023-01-29T14:09:00.760Z,54.55
2023-01-29T14:12:23.552Z,56.22
2023-01-29T14:15:32.618Z,56.10
2023-01-29T14:18:37.498Z,56.14
2023-01-29T14:22:03.625Z,57.40
2023-01-29T14:25:31.586Z,57.39
2023-01-29T14:28:41.284Z,57.22
2023-01-29T14:31:59.120Z,57.67
2023-01-29T14:35:10.457Z,57.65
2023-01-29T14:38:15.804Z,58.10
2023-01-29T14:41:42.415Z,58.24
2023-01-29T14:44:56.116Z,57.93
2023-01-29T14:48:02.204Z,57.46
2023-01-29T14:51:15.769Z,57.66
2023-01-29T14:54:33.842Z,58.51
2023-01-29T14:57:39.049Z,58.87
2023-01-29T15:00:46.445Z,58.33
2023-01-29T15:04:12.197Z,58.24
2023-01-29T15:07:40.348Z,58.78
2023-01-29T15:11:19.988Z,59.35
2023-01-29T15:14:36.862Z,59.31
2023-01-29T15:17:58.684Z,58.77
2023-01-29T15:21:05.830Z,59.25
2023-01-29T15:24:29.324Z,59.16
2023-01-29T15:27:56.571Z,59.11
2023-01-29T15:31:17.366Z,59.25
2023-01-29T15:34:23.769Z,59.34
2023-01-29T15:37:37.221Z,60.04
2023-01-29T15:41:03.388Z,60.11
2023-01-29T15:44:16.924Z,59.58
2023-01-29T15:47:32.618Z,59.36
2023-01-29T15:50:48.204Z,59.78
2023-01-29T15:53:58.202Z,59.54
2023-01-29T15:57:35.371Z,59.96
2023-01-29T16:00:53.132Z,59.98
2023-01-29T16:04:11.342Z,60.58
2023-01-29T16:07:35.131Z,60.30
2023-01-29T16:10:56.800Z,60.31
2023-01-29T16:14:18.811Z,60.83
2023-01-29T16:17:36.811Z,60.40
2023-01-29T16:20:45.793Z,60.66
2023-01-29T16:24:01.739Z,60.67
2023-01-29T16:27:15.106Z,60.92
2023-01-29T16:30:19.399Z,61.05
2023-01-29T16:33:28.213Z,61.91
2023-01-29T16:36:34.926Z,61.43
2023-01-29T16:39:47.773Z,62.94
2023-01-29T16:43:37.537Z,62.46
2023-01-29T16:46:51.414Z,61.92
2023-01-29T16:50:46.358Z,61.62
2023-01-29T16:54:23.611Z,62.33
2023-01-29T16:57:33.745Z,61.79
2023-01-29T17:00:44.796Z,61.14
2023-01-29T17:04:26.935Z,61.48
2023-01-29T17:07:46.300Z,62.15
2023-01-29T17:10:50.048Z,62.78
2023-01-29T17:14:06.931Z,62.19
2023-01-29T17:17:45.963Z,62.96
2023-01-29T17:20:57.067Z,63.05
2023-01-29T17:24:20.863Z,62.69
2023-01-29T17:27:34.572Z,62.30
2023-01-29T17:31:05.182Z,63.77
2023-01-29T17:34:23.942Z,62.95
2023-01-29T17:37:46.698Z,62.75
2023-01-29T17:41:09.935Z,63.16
2023-01-29T17:44:33.863Z,63.33
2023-01-29T17:47:44.476Z,63.29
2023-01-29T17:51:10.826Z,63.74
2023-01-29T17:54:42.691Z,63.72
2023-01-29T17:57:52.787Z,64.17
2023-01-29T18:01:02.412Z,64.03
2023-01-29T18:04:06.926Z,63.44
2023-01-29T18:07:13.780Z,62.71
2023-01-29T18:10:20.861Z,63.50
2023-01-29T18:13:24.533Z,63.17
2023-01-29T18:16:38.701Z,64.10
2023-01-29T18:20:00.669Z,62.90
2023-01-29T18:23:12.526Z,63.94
2023-01-29T18:26:35.730Z,63.47
2023-01-29T18:29:59.888Z,63.75
2023-01-29T18:33:15.722Z,63.58
2023-01-29T18:36:52.238Z,64.32
2023-01-29T18:40:21.489Z,63.52
2023-01-29T18:43:28.288Z,63.60
2023-01-29T18:46:52.649Z,64.17
2023-01-29T18:50:10.835Z,64.24
2023-01-29T18:53:27.646Z,63.53
2023-01-29T18:57:04.269Z,64.20
2023-01-29T19:00:25.173Z,63.25
2023-01-29T19:03:49.619Z,63.96
2023-01-29T19:07:12.890Z,63.83
2023-01-29T19:10:34.697Z,63.51
2023-01-29T19:13:57.695Z,64.88
2023-01-29T19:17:20.982Z,64.51
2023-01-29T19:20:42.787Z,63.93
2023-01-29T19:23:58.731Z,64.42
2023-01-29T19:27:18.616Z,64.28
2023-01-29T19:30:47.718Z,64.38
2023-01-29T19:33:58.967Z,64.75
2023-01-29T19:37:25.517Z,64.17
2023-01-29T19:40:32.814Z,64.80
2023-01-29T19:43:41.908Z,65.25
2023-01-29T19:46:52.539Z,64.96
2023-01-29T19:50:08.748Z,65.01
2023-01-29T19:53:35.139Z,65.62
2023-01-29T19:56:45.067Z,65.25
2023-01-29T19:59:52.587Z,65.46
2023-01-29T20:03:03.172Z,64.73
2023-01-29T20:06:11.469Z,65.17
2023-01-29T20:09:15.406Z,64.39
2023-01-29T20:12:20.907Z,65.22
2023-01-29T20:15:24.254Z,65.11
2023-01-29T20:18:36.785Z,65.99
2023-01-29T20:21:42.010Z,65.50
2023-01-29T20:24:58.955Z,65.12
2023-01-29T20:28:18.979Z,65.03
2023-01-29T20:31:35.642Z,65.75
2023-01-29T20:34:39.565Z,65.01
2023-01-29T20:37:44.298Z,66.31
2023-01-29T20:40:51.827Z,66.86
2023-01-29T20:44:08.400Z,65.76
2023-01-29T20:47:20.311Z,66.23
2023-01-29T20:50:24.309Z,66.00
2023-01-29T20:53:52.348Z,67.28
2023-01-29T20:57:29.243Z,66.92
2023-01-29T21:00:58.074Z,67.09
2023-01-29T21:04:19.322Z,66.24
2023-01-29T21:07:41.320Z,67.33
2023-01-29T21:11:05.218Z,67.57
2023-01-29T21:14:33.325Z,66.86
2023-01-29T21:17:36.363Z,66.71
2023-01-29T21:20:41.281Z,66.67
2023-01-29T21:23:52.376Z,67.06
2023-01-29T21:27:01.820Z,67.15
2023-01-29T21:30:06.720Z,67.26
2023-01-29T21:33:11.047Z,67.76
2023-01-29T21:36:29.178Z,67.95
2023-01-29T21:39:49.324Z,66.38
2023-01-29T21:43:11.543Z,67.10
2023-01-29T21:46:32.427Z,67.47
2023-01-29T21:49:55.401Z,67.34
2023-01-29T21:53:11.461Z,66.80
2023-01-29T21:56:25.364Z,67.16
2023-01-29T21:59:29.500Z,67.25
2023-01-29T22:02:38.492Z,67.55
2023-01-29T22:05:50.254Z,67.51
2023-01-29T22:09:13.099Z,67.92
2023-01-29T22:12:41.360Z,67.45
2023-01-29T22:15:55.838Z,66.39
2023-01-29T22:19:03.651Z,66.96
2023-01-29T22:22:19.933Z,67.16
2023-01-29T22:25:32.391Z,66.08
2023-01-29T22:28:38.879Z,66.69
2023-01-29T22:31:49.439Z,65.77
2023-01-29T22:34:53.607Z,66.01
2023-01-29T22:38:05.625Z,65.64
2023-01-29T22:41:27.071Z,66.60
2023-01-29T22:44:43.270Z,65.73
2023-01-29T22:47:58.753Z,65.56
2023-01-29T22:51:11.976Z,65.96
2023-01-29T22:54:15.990Z,66.92
2023-01-29T22:57:34.371Z,66.27
2023-01-29T23:00:52.317Z,65.77
2023-01-29T23:04:17.954Z,65.69
2023-01-29T23:07:41.111Z,65.71
2023-01-29T23:11:14.524Z,66.71
2023-01-29T23:14:37.774Z,65.87
2023-01-29T23:18:00.960Z,67.50
2023-01-29T23:21:40.039Z,67.33
2023-01-29T23:25:16.101Z,66.89
2023-01-29T23:28:41.980Z,67.37
2023-01-29T23:32:03.959Z,66.90
2023-01-29T23:35:27.948Z,66.90
2023-01-29T23:38:44.284Z,66.21
2023-01-29T23:42:08.072Z,67.02
2023-01-29T23:45:29.129Z,67.14
2023-01-29T23:48:53.755Z,67.21
2023-01-29T23:52:04.339Z,66.33
2023-01-29T23:55:25.516Z,66.71
2023-01-29T23:59:03.073Z,66.65
